Time;durP1;ratioP1;P1;durP2;ratioP2;P2;SDS_P1;SDS_P2;PMS_P1;PMS_P2;Temp;Humidity;BMP_temperature;BMP_pressure;BME280_temperature;BME280_humidity;BME280_pressure;Samples;Min_cycle;Max_cycle;Signal;HPM_P1;HPM_P2
2024/02/18 00:01:08;;;;;;;26.10;6.03;;;27.00;42.30;;;;;;5074638;28;20416;-61
2024/02/18 00:03:37;;;;;;;17.25;5.75;;;27.00;41.90;;;;;;5053361;28;20127;-61
2024/02/18 00:06:04;;;;;;;19.15;5.85;;;26.90;42.60;;;;;;5052504;28;20115;-62
2024/02/18 00:08:31;;;;;;;20.50;5.90;;;26.90;41.90;;;;;;5054598;28;20111;-60
2024/02/18 00:10:57;;;;;;;27.85;6.40;;;26.80;42.10;;;;;;5054941;28;20068;-61
2024/02/18 00:13:24;;;;;;;26.17;5.63;;;26.80;42.00;;;;;;5054997;28;20440;-60
2024/02/18 00:15:50;;;;;;;31.75;5.90;;;26.70;42.50;;;;;;5054513;28;20084;-63
2024/02/18 00:18:17;;;;;;;27.50;6.28;;;26.60;42.80;;;;;;5052617;28;20095;-62
2024/02/18 00:20:43;;;;;;;17.42;5.53;;;26.50;42.60;;;;;;5054577;28;20423;-62
2024/02/18 00:23:10;;;;;;;24.23;6.30;;;26.40;43.20;;;;;;5070171;28;20110;-61
2024/02/18 00:25:36;;;;;;;18.75;5.50;;;26.40;43.30;;;;;;5072734;28;20069;-61
2024/02/18 00:28:03;;;;;;;17.05;5.82;;;26.30;43.50;;;;;;5060347;28;20111;-61
2024/02/18 00:30:29;;;;;;;13.90;5.13;;;26.20;43.50;;;;;;5054521;28;20069;-62
2024/02/18 00:32:56;;;;;;;20.65;6.30;;;26.10;44.00;;;;;;5054329;28;20157;-61
2024/02/18 00:35:22;;;;;;;22.30;6.18;;;26.10;44.00;;;;;;5054087;28;20576;-61
2024/02/18 00:37:49;;;;;;;27.33;7.60;;;26.10;44.40;;;;;;5054385;28;20524;-61
2024/02/18 00:40:15;;;;;;;25.27;6.97;;;26.00;44.30;;;;;;5053142;28;20070;-60
2024/02/18 00:42:42;;;;;;;21.35;5.97;;;26.00;44.10;;;;;;5054261;28;20174;-60
2024/02/18 00:45:09;;;;;;;28.63;6.47;;;26.00;44.30;;;;;;5066742;28;20068;-59
2024/02/18 00:47:35;;;;;;;23.17;7.28;;;26.10;44.30;;;;;;5071754;28;20076;-61
2024/02/18 00:50:02;;;;;;;25.27;7.45;;;26.10;44.70;;;;;;5067613;28;20077;-60
2024/02/18 00:52:28;;;;;;;16.92;6.32;;;25.90;44.80;;;;;;5073896;28;20424;-61
2024/02/18 00:54:55;;;;;;;26.15;7.53;;;25.70;45.10;;;;;;5074140;28;20117;-60
2024/02/18 00:57:21;;;;;;;28.77;6.03;;;25.50;45.30;;;;;;5074096;28;20065;-61
2024/02/18 00:59:48;;;;;;;38.13;21.65;;;25.40;45.90;;;;;;5064293;28;20810;-60
2024/02/18 01:02:14;;;;;;;24.48;5.50;;;25.30;46.50;;;;;;5084417;28;20117;-62
2024/02/18 01:04:41;;;;;;;20.98;5.00;;;25.20;47.10;;;;;;5050422;28;20427;-63
2024/02/18 01:07:09;;;;;;;17.88;5.80;;;25.00;47.60;;;;;;5053430;28;20144;-60
2024/02/18 01:09:36;;;;;;;24.70;5.78;;;24.80;47.70;;;;;;5051487;28;20087;-61
2024/02/18 01:12:03;;;;;;;21.17;5.43;;;24.70;48.20;;;;;;5053462;28;20072;-60
2024/02/18 01:14:29;;;;;;;17.17;5.93;;;24.60;48.50;;;;;;5053377;28;20077;-63
2024/02/18 01:16:57;;;;;;;18.90;5.60;;;24.40;48.70;;;;;;5059728;28;20516;-61
2024/02/18 01:19:24;;;;;;;13.77;5.40;;;24.30;49.00;;;;;;5073569;28;20073;-62
2024/02/18 01:21:50;;;;;;;18.00;6.07;;;24.20;49.40;;;;;;5073439;28;20504;-62
2024/02/18 01:24:18;;;;;;;21.02;6.07;;;24.10;49.60;;;;;;5071574;28;20065;-63
2024/02/18 01:26:44;;;;;;;20.98;8.98;;;23.90;50.20;;;;;;5073340;28;20065;-64
2024/02/18 01:29:11;;;;;;;37.03;5.63;;;23.80;50.50;;;;;;5073177;28;20073;-62
2024/02/18 01:31:37;;;;;;;20.73;5.63;;;23.70;50.50;;;;;;5065634;28;20211;-60
2024/02/18 01:34:04;;;;;;;18.63;5.68;;;23.60;50.70;;;;;;5064078;28;20069;-62
2024/02/18 01:36:31;;;;;;;19.73;5.43;;;23.50;50.90;;;;;;5073220;28;20076;-59
2024/02/18 01:38:57;;;;;;;21.48;5.75;;;23.30;51.20;;;;;;5073429;28;20065;-60
2024/02/18 01:41:24;;;;;;;23.55;5.25;;;23.10;52.00;;;;;;5073002;28;20071;-61
2024/02/18 01:43:51;;;;;;;34.60;6.30;;;22.90;52.10;;;;;;5073358;28;20111;-59
2024/02/18 01:46:18;;;;;;;25.08;6.95;;;22.80;52.40;;;;;;5073000;28;20616;-60
2024/02/18 01:48:44;;;;;;;31.00;8.23;;;22.70;52.60;;;;;;5069336;28;20106;-60
2024/02/18 01:51:11;;;;;;;39.35;9.50;;;22.50;53.00;;;;;;5070570;28;20260;-62
2024/02/18 01:53:40;;;;;;;46.13;11.75;;;22.40;53.30;;;;;;5073429;28;20105;-61
2024/02/18 01:56:09;;;;;;;52.53;14.05;;;22.40;53.60;;;;;;5064414;28;20114;-60
2024/02/18 01:58:40;;;;;;;57.33;16.65;;;22.30;54.40;;;;;;5059179;28;20127;-60
2024/02/18 02:01:17;;;;;;;55.65;18.80;;;22.30;54.50;;;;;;5072387;28;20073;-60
2024/02/18 02:03:46;;;;;;;68.47;20.65;;;22.20;54.30;;;;;;5071807;28;20570;-59
2024/02/18 02:06:15;;;;;;;63.50;21.90;;;22.00;54.40;;;;;;5059404;28;20080;-60
2024/02/18 02:08:46;;;;;;;62.47;23.67;;;21.90;54.80;;;;;;5051981;28;20086;-60
2024/02/18 02:11:12;;;;;;;62.92;24.50;;;21.80;55.10;;;;;;5053173;28;20072;-60
2024/02/18 02:13:44;;;;;;;77.65;24.92;;;21.70;55.20;;;;;;5052378;28;21381;-60
2024/02/18 02:16:11;;;;;;;88.10;27.98;;;21.60;55.60;;;;;;5057790;28;20077;-61
2024/02/18 02:18:38;;;;;;;119.90;62.78;;;21.50;55.90;;;;;;5065912;28;20122;-60
2024/02/18 02:21:04;;;;;;;109.70;55.95;;;21.40;56.40;;;;;;5067937;28;20160;-60
2024/02/18 02:23:32;;;;;;;98.53;45.63;;;21.40;57.10;;;;;;5063476;28;20089;-60
2024/02/18 02:25:58;;;;;;;92.03;42.00;;;21.30;57.50;;;;;;5060454;28;20079;-59
2024/02/18 02:28:35;;;;;;;96.18;32.63;;;21.20;57.60;;;;;;5061381;28;20146;-59
2024/02/18 02:31:01;;;;;;;84.65;28.95;;;21.00;57.90;;;;;;5061920;28;20068;-59
2024/02/18 02:33:30;;;;;;;84.57;26.33;;;20.90;58.20;;;;;;5058055;28;20425;-58
2024/02/18 02:35:56;;;;;;;82.32;24.58;;;20.80;58.70;;;;;;5049518;28;21831;-59
2024/02/18 02:38:23;;;;;;;73.28;24.75;;;20.70;58.90;;;;;;5054383;28;20432;-59
2024/02/18 02:40:49;;;;;;;100.20;24.70;;;20.60;59.10;;;;;;5052841;28;20073;-58
2024/02/18 02:43:16;;;;;;;88.78;25.25;;;20.50;59.30;;;;;;5053439;28;20374;-61
2024/02/18 02:45:43;;;;;;;99.53;25.50;;;20.40;59.80;;;;;;5052447;28;20062;-59
2024/02/18 02:48:09;;;;;;;87.22;24.20;;;20.30;60.40;;;;;;5057941;28;20114;-59
2024/02/18 02:50:36;;;;;;;89.82;24.27;;;20.20;61.00;;;;;;5051209;28;20168;-59
2024/02/18 02:53:03;;;;;;;94.57;24.48;;;20.20;61.10;;;;;;5047142;28;20084;-58
2024/02/18 02:55:30;;;;;;;89.22;24.63;;;20.10;61.80;;;;;;5062290;28;20441;-59
2024/02/18 02:57:56;;;;;;;105.38;27.73;;;20.00;62.10;;;;;;5054722;28;20080;-58
2024/02/18 03:00:23;;;;;;;109.18;27.30;;;20.00;62.30;;;;;;5060547;28;20076;-59
2024/02/18 03:02:49;;;;;;;115.63;32.17;;;20.00;62.00;;;;;;5049884;28;20251;-59
2024/02/18 03:05:15;;;;;;;109.00;33.35;;;20.00;61.80;;;;;;5060434;28;20084;-59
2024/02/18 03:07:42;;;;;;;116.13;34.88;;;20.10;61.90;;;;;;5064736;28;20159;-60
2024/02/18 03:10:09;;;;;;;132.65;36.67;;;20.10;62.00;;;;;;5052507;28;20080;-59
2024/02/18 03:12:36;;;;;;;118.40;35.20;;;20.10;62.00;;;;;;5066397;28;20080;-59
2024/02/18 03:15:03;;;;;;;106.72;32.92;;;19.90;62.40;;;;;;5062520;28;20160;-60
2024/02/18 03:17:30;;;;;;;119.90;32.75;;;19.80;63.20;;;;;;5051451;28;20076;-60
2024/02/18 03:19:56;;;;;;;110.53;28.92;;;19.70;64.20;;;;;;5055151;28;20080;-60
2024/02/18 03:22:24;;;;;;;134.02;29.50;;;19.60;64.20;;;;;;5071587;28;20093;-60
2024/02/18 03:24:50;;;;;;;111.22;29.83;;;19.60;64.20;;;;;;5070217;28;20102;-58
2024/02/18 03:27:20;;;;;;;133.23;27.70;;;19.50;64.50;;;;;;5055920;28;20066;-61
2024/02/18 03:29:47;;;;;;;135.30;29.73;;;19.40;64.80;;;;;;5054625;28;20442;-59
2024/02/18 03:32:14;;;;;;;130.38;28.13;;;19.40;65.50;;;;;;5056999;28;20073;-60
2024/02/18 03:34:44;;;;;;;131.48;29.30;;;19.40;65.50;;;;;;5066362;28;20428;-59
2024/02/18 03:37:12;;;;;;;133.30;29.27;;;19.40;65.40;;;;;;5055470;28;20090;-61
2024/02/18 03:39:39;;;;;;;143.05;28.40;;;19.40;65.20;;;;;;5063675;28;20072;-60
2024/02/18 03:42:06;;;;;;;124.07;26.15;;;19.50;64.40;;;;;;5072254;28;20103;-58
2024/02/18 03:44:33;;;;;;;137.27;24.92;;;19.50;63.90;;;;;;5074161;28;20077;-59
2024/02/18 03:47:00;;;;;;;121.35;25.02;;;19.60;63.90;;;;;;5056788;28;20186;-59
2024/02/18 03:49:27;;;;;;;125.80;26.55;;;19.60;64.00;;;;;;5050834;28;20073;-59
2024/02/18 03:51:55;;;;;;;147.02;28.25;;;19.60;64.00;;;;;;5061361;28;20116;-60
2024/02/18 03:54:22;;;;;;;157.27;29.25;;;19.50;63.90;;;;;;5058097;28;20105;-60
2024/02/18 03:56:49;;;;;;;126.90;31.17;;;19.50;64.80;;;;;;5055250;28;20069;-60
2024/02/18 03:59:16;;;;;;;136.40;37.25;;;19.50;63.90;;;;;;5057440;28;20091;-61
2024/02/18 04:01:42;;;;;;;150.52;52.05;;;19.50;63.70;;;;;;5063545;28;20510;-60
2024/02/18 04:04:09;;;;;;;155.57;50.22;;;19.50;63.80;;;;;;5074345;28;20516;-60
2024/02/18 04:06:35;;;;;;;143.13;47.38;;;19.50;63.70;;;;;;5084500;28;20402;-60
2024/02/18 04:09:02;;;;;;;112.03;30.80;;;19.50;63.70;;;;;;5069402;28;20504;-60
2024/02/18 04:11:29;;;;;;;101.85;26.55;;;19.50;63.90;;;;;;5050462;28;20073;-59
2024/02/18 04:13:55;;;;;;;114.50;25.50;;;19.40;64.70;;;;;;5058331;28;21309;-60
2024/02/18 04:16:22;;;;;;;94.90;21.70;;;19.40;65.00;;;;;;5052591;28;20081;-58
2024/02/18 04:18:48;;;;;;;86.43;21.38;;;19.30;64.10;;;;;;5065638;28;20435;-59
2024/02/18 04:21:15;;;;;;;91.05;20.23;;;19.30;64.20;;;;;;5054891;28;20410;-59
2024/02/18 04:23:41;;;;;;;93.97;22.20;;;19.20;64.30;;;;;;5053302;28;20061;-60
2024/02/18 04:26:08;;;;;;;97.75;20.83;;;19.10;65.50;;;;;;5073332;28;20187;-60
2024/02/18 04:28:35;;;;;;;88.28;20.13;;;19.10;66.20;;;;;;5057913;28;20105;-59
2024/02/18 04:31:01;;;;;;;98.03;22.50;;;19.00;66.60;;;;;;5058156;28;20432;-59
2024/02/18 04:33:28;;;;;;;91.45;21.30;;;18.80;67.60;;;;;;5053628;28;20536;-59
2024/02/18 04:35:55;;;;;;;91.15;22.20;;;18.60;68.20;;;;;;5053815;28;20070;-60
2024/02/18 04:38:21;;;;;;;78.75;19.90;;;18.60;69.50;;;;;;5060739;28;20069;-59
2024/02/18 04:40:48;;;;;;;96.78;21.27;;;18.50;68.60;;;;;;5071862;28;20068;-59
2024/02/18 04:43:16;;;;;;;97.85;20.92;;;18.50;69.10;;;;;;5062048;28;20173;-58
2024/02/18 04:45:44;;;;;;;91.13;21.88;;;18.40;69.80;;;;;;5054539;28;20103;-58
2024/02/18 04:48:11;;;;;;;75.35;21.35;;;18.40;69.40;;;;;;5052904;28;20075;-59
2024/02/18 04:50:37;;;;;;;88.95;21.75;;;18.30;69.70;;;;;;5051199;28;20577;-59
2024/02/18 04:53:05;;;;;;;80.82;21.35;;;18.20;70.00;;;;;;5052900;28;20160;-60
2024/02/18 04:55:31;;;;;;;112.85;23.35;;;18.10;71.10;;;;;;5057302;28;20105;-60
2024/02/18 04:57:59;;;;;;;100.97;23.35;;;18.00;71.50;;;;;;5074003;28;20077;-60
2024/02/18 05:00:26;;;;;;;100.15;24.38;;;17.90;72.00;;;;;;5072783;28;20123;-58
2024/02/18 05:02:52;;;;;;;99.45;23.60;;;17.90;72.40;;;;;;5074053;28;20093;-58
2024/02/18 05:05:19;;;;;;;105.70;24.50;;;17.90;71.70;;;;;;5074073;28;20412;-59
2024/02/18 05:07:46;;;;;;;82.47;25.45;;;17.80;71.90;;;;;;5051734;28;20073;-59
2024/02/18 05:10:12;;;;;;;106.57;26.20;;;17.70;73.30;;;;;;5055027;28;20085;-60
2024/02/18 05:12:39;;;;;;;110.00;25.50;;;17.60;73.40;;;;;;5073061;28;20084;-60
2024/02/18 05:15:06;;;;;;;99.85;25.50;;;17.60;73.50;;;;;;5071779;28;20559;-60
2024/02/18 05:17:32;;;;;;;104.93;25.50;;;17.60;73.30;;;;;;5073791;28;20122;-59
2024/02/18 05:19:59;;;;;;;88.00;23.52;;;17.60;74.70;;;;;;5073431;28;20061;-60
2024/02/18 05:22:25;;;;;;;84.65;24.17;;;17.50;75.10;;;;;;5073497;28;20111;-59
2024/02/18 05:24:52;;;;;;;104.20;25.42;;;17.50;75.70;;;;;;5070917;28;20083;-59
2024/02/18 05:27:19;;;;;;;74.65;22.70;;;17.40;76.20;;;;;;5053155;28;20069;-59
2024/02/18 05:29:48;;;;;;;93.00;24.92;;;17.30;75.50;;;;;;5053314;28;20065;-62
2024/02/18 05:32:14;;;;;;;97.20;25.17;;;17.30;75.80;;;;;;5067157;28;20163;-60
2024/02/18 05:34:41;;;;;;;107.43;22.80;;;17.30;75.80;;;;;;5070368;28;20156;-60
2024/02/18 05:37:08;;;;;;;75.07;22.95;;;17.30;75.60;;;;;;5071345;28;20493;-59
2024/02/18 05:39:35;;;;;;;91.70;23.67;;;17.40;75.90;;;;;;5052746;28;20508;-60
2024/02/18 05:42:01;;;;;;;84.70;22.40;;;17.30;76.20;;;;;;5065965;28;20103;-61
2024/02/18 05:44:28;;;;;;;71.88;22.25;;;17.20;76.20;;;;;;5066966;28;20080;-58
2024/02/18 05:46:54;;;;;;;87.30;23.00;;;17.20;76.10;;;;;;5052069;28;20073;-59
2024/02/18 05:49:21;;;;;;;96.57;23.50;;;17.20;75.70;;;;;;5051208;28;20514;-59
2024/02/18 05:51:54;;;;;;;123.43;27.85;;;17.20;76.30;;;;;;5070672;28;20076;-60
2024/02/18 05:54:23;;;;;;;95.63;26.65;;;17.10;76.30;;;;;;5072734;28;20115;-59
2024/02/18 05:56:50;;;;;;;120.53;27.58;;;17.00;76.60;;;;;;5069956;28;20073;-59
2024/02/18 05:59:16;;;;;;;109.45;26.75;;;17.10;76.90;;;;;;5069550;28;20088;-60
2024/02/18 06:01:48;;;;;;;111.20;26.58;;;17.00;77.00;;;;;;5071834;28;20100;-59
2024/02/18 06:04:15;;;;;;;83.60;23.83;;;17.00;77.80;;;;;;5071715;28;20130;-59
2024/02/18 06:06:41;;;;;;;104.40;27.40;;;17.00;77.50;;;;;;5073397;28;20088;-60
2024/02/18 06:09:08;;;;;;;93.88;25.00;;;16.90;77.30;;;;;;5071214;28;20077;-60
2024/02/18 06:11:37;;;;;;;82.80;25.60;;;17.00;77.40;;;;;;5071047;28;20103;-59
2024/02/18 06:14:03;;;;;;;110.10;24.23;;;16.90;77.20;;;;;;5071726;28;20543;-59
2024/02/18 06:16:30;;;;;;;84.13;24.02;;;16.80;77.80;;;;;;5072201;28;20080;-61
2024/02/18 06:18:56;;;;;;;98.32;23.48;;;16.80;78.10;;;;;;5066520;28;20081;-59
2024/02/18 06:21:23;;;;;;;96.07;23.63;;;16.70;79.00;;;;;;5069426;28;20073;-58
2024/02/18 06:23:55;;;;;;;78.10;21.88;;;16.70;79.10;;;;;;5072332;28;20097;-60
2024/02/18 06:26:23;;;;;;;93.43;23.23;;;16.70;79.70;;;;;;5069522;28;20107;-60
2024/02/18 06:28:49;;;;;;;91.45;23.08;;;16.60;79.80;;;;;;5070164;28;20475;-59
2024/02/18 06:31:17;;;;;;;72.60;22.27;;;16.60;79.70;;;;;;5069232;28;20104;-61
2024/02/18 06:33:46;;;;;;;75.75;23.13;;;16.60;79.80;;;;;;5052101;28;20077;-59
2024/02/18 06:36:13;;;;;;;84.63;23.60;;;16.50;80.40;;;;;;5064431;28;20577;-62
2024/02/18 06:38:43;;;;;;;92.78;24.42;;;16.50;81.20;;;;;;5069415;28;20091;-59
2024/02/18 06:41:11;;;;;;;77.60;22.77;;;16.40;81.30;;;;;;5072026;28;20115;-59
2024/02/18 06:43:38;;;;;;;72.82;21.58;;;16.40;81.70;;;;;;5071508;28;20196;-61
2024/02/18 06:46:04;;;;;;;71.63;20.42;;;16.40;81.80;;;;;;5069887;28;20065;-60
2024/02/18 06:48:31;;;;;;;78.30;20.05;;;16.30;82.20;;;;;;5058747;28;20468;-60
2024/02/18 06:50:57;;;;;;;64.68;19.70;;;16.30;82.70;;;;;;5060384;28;20168;-59
2024/02/18 06:53:24;;;;;;;52.85;19.20;;;16.30;82.80;;;;;;5067165;28;20157;-60
2024/02/18 06:55:50;;;;;;;43.15;18.08;;;16.30;84.10;;;;;;5066846;28;20065;-60
2024/02/18 06:58:17;;;;;;;64.60;17.90;;;16.30;84.50;;;;;;5066861;28;20099;-60
2024/02/18 07:00:43;;;;;;;53.40;17.73;;;16.30;84.60;;;;;;5066682;28;20069;-59
2024/02/18 07:03:10;;;;;;;65.80;16.17;;;16.30;84.60;;;;;;5069308;28;20108;-59
2024/02/18 07:05:37;;;;;;;56.78;16.58;;;16.30;84.90;;;;;;5065151;28;20546;-60
2024/02/18 07:08:05;;;;;;;48.63;16.83;;;16.20;86.40;;;;;;5063132;28;20512;-61
2024/02/18 07:10:31;;;;;;;46.22;16.67;;;16.20;86.50;;;;;;5064718;28;20099;-61
2024/02/18 07:12:58;;;;;;;38.13;17.63;;;16.20;86.40;;;;;;5067431;28;20156;-60
2024/02/18 07:15:24;;;;;;;43.80;16.15;;;16.20;86.60;;;;;;5048291;28;20521;-60
2024/02/18 07:17:51;;;;;;;66.60;29.83;;;16.20;87.00;;;;;;5069330;28;20183;-60
2024/02/18 07:20:17;;;;;;;43.60;15.30;;;16.20;87.20;;;;;;5072412;28;20149;-60
2024/02/18 07:22:44;;;;;;;37.72;14.63;;;16.20;87.50;;;;;;5067363;28;20101;-60
2024/02/18 07:25:11;;;;;;;38.25;15.48;;;16.10;87.80;;;;;;5066935;28;20065;-60
2024/02/18 07:27:38;;;;;;;33.47;14.57;;;16.10;88.50;;;;;;5065471;28;20069;-61
2024/02/18 07:30:05;;;;;;;32.47;14.48;;;16.10;88.60;;;;;;5063475;28;20069;-60
2024/02/18 07:32:31;;;;;;;48.90;14.40;;;16.10;89.30;;;;;;5065291;28;20152;-60
2024/02/18 07:34:58;;;;;;;31.35;13.82;;;16.00;89.60;;;;;;5064083;28;20073;-61
2024/02/18 07:37:24;;;;;;;30.42;13.68;;;16.00;89.90;;;;;;5073693;28;20513;-61
2024/02/18 07:39:51;;;;;;;33.22;14.38;;;16.00;90.10;;;;;;5065853;28;20104;-58
2024/02/18 07:42:17;;;;;;;50.25;15.05;;;15.80;90.50;;;;;;5068146;28;20103;-59
2024/02/18 07:44:45;;;;;;;33.17;13.43;;;15.80;90.90;;;;;;5066627;28;20077;-58
2024/02/18 07:47:11;;;;;;;31.10;14.32;;;15.70;90.80;;;;;;5064751;28;20101;-60
2024/02/18 07:49:38;;;;;;;39.38;14.45;;;15.80;90.70;;;;;;5066617;28;20171;-60
2024/02/18 07:52:05;;;;;;;34.92;14.98;;;15.60;90.70;;;;;;5067188;28;20358;-59
2024/02/18 07:54:32;;;;;;;33.65;14.65;;;15.60;91.10;;;;;;5048916;28;20101;-59
2024/02/18 07:56:58;;;;;;;34.60;15.73;;;15.60;91.20;;;;;;5067884;28;20535;-59
2024/02/18 07:59:25;;;;;;;39.00;16.73;;;15.60;91.20;;;;;;5067511;28;20119;-59
2024/02/18 08:01:52;;;;;;;44.03;16.48;;;15.60;91.40;;;;;;5067825;28;20107;-59
2024/02/18 08:04:18;;;;;;;33.58;16.02;;;15.60;91.80;;;;;;5067755;28;20065;-60
2024/02/18 08:06:45;;;;;;;31.08;15.98;;;15.60;91.80;;;;;;5067678;28;20111;-60
2024/02/18 08:09:11;;;;;;;36.72;17.23;;;15.60;91.70;;;;;;5066758;28;20516;-59
2024/02/18 08:11:38;;;;;;;40.38;15.25;;;15.60;91.70;;;;;;5069358;28;20070;-59
2024/02/18 08:14:05;;;;;;;23.48;15.38;;;15.50;91.50;;;;;;5069284;28;20627;-59
2024/02/18 08:16:31;;;;;;;30.90;15.18;;;15.60;91.40;;;;;;5071123;28;20099;-59
2024/02/18 08:18:58;;;;;;;22.27;13.65;;;15.60;90.10;;;;;;5068547;28;20147;-59
2024/02/18 08:21:25;;;;;;;19.55;12.80;;;15.90;86.50;;;;;;5068437;28;20065;-60
2024/02/18 08:23:51;;;;;;;18.58;12.80;;;16.10;83.60;;;;;;5069780;28;20076;-59
2024/02/18 08:26:25;;;;;;;23.38;13.15;;;16.20;82.30;;;;;;5070095;28;20069;-62
2024/02/18 08:28:53;;;;;;;18.23;11.77;;;16.30;82.20;;;;;;5067238;28;20175;-62
2024/02/18 08:31:21;;;;;;;19.02;12.10;;;16.80;81.30;;;;;;5070490;28;20092;-62
2024/02/18 08:33:48;;;;;;;21.40;13.57;;;17.20;80.00;;;;;;5071316;28;20529;-61
2024/02/18 08:36:15;;;;;;;25.13;12.27;;;17.20;78.40;;;;;;5069015;28;20069;-62
2024/02/18 08:38:43;;;;;;;20.45;11.77;;;17.50;77.80;;;;;;5069790;28;20156;-61
2024/02/18 08:41:10;;;;;;;19.48;12.50;;;17.50;77.90;;;;;;5074311;28;20083;-61
2024/02/18 08:43:43;;;;;;;18.60;12.52;;;17.60;77.50;;;;;;5068843;28;20505;-62
2024/02/18 08:46:10;;;;;;;17.17;12.32;;;17.50;77.00;;;;;;5069611;28;20170;-62
2024/02/18 08:48:39;;;;;;;20.20;13.02;;;17.30;76.90;;;;;;5068129;28;20079;-61
2024/02/18 08:51:08;;;;;;;21.88;12.32;;;17.40;77.30;;;;;;5071195;28;20069;-62
2024/02/18 08:53:36;;;;;;;22.35;12.65;;;17.30;77.20;;;;;;5063024;28;20104;-61
2024/02/18 08:56:04;;;;;;;19.08;11.73;;;17.40;76.50;;;;;;5068604;28;20173;-61
2024/02/18 08:58:33;;;;;;;21.95;11.27;;;17.10;75.20;;;;;;5064339;28;20078;-62
2024/02/18 09:01:00;;;;;;;49.08;11.60;;;17.00;74.90;;;;;;5056456;28;20101;-64
2024/02/18 09:03:27;;;;;;;23.42;10.93;;;16.80;73.40;;;;;;5059847;28;20105;-65
2024/02/18 09:05:54;;;;;;;19.80;10.70;;;16.80;73.30;;;;;;5064855;28;20127;-65
2024/02/18 09:08:21;;;;;;;24.90;11.15;;;16.80;73.00;;;;;;5066764;28;20069;-64
2024/02/18 09:10:47;;;;;;;21.60;10.38;;;16.70;73.40;;;;;;5063082;28;20075;-65
2024/02/18 09:13:14;;;;;;;18.55;9.75;;;16.80;73.20;;;;;;5071294;28;20077;-65
2024/02/18 09:15:41;;;;;;;24.20;10.48;;;16.80;73.20;;;;;;5067972;28;20069;-65
2024/02/18 09:18:08;;;;;;;18.40;10.60;;;16.80;72.90;;;;;;5062532;28;20136;-65
2024/02/18 09:20:34;;;;;;;21.85;10.00;;;17.00;72.90;;;;;;5065524;28;20065;-65
2024/02/18 09:23:01;;;;;;;18.63;10.02;;;16.90;72.90;;;;;;5058316;28;20211;-65
2024/02/18 09:25:27;;;;;;;22.08;10.25;;;16.80;72.90;;;;;;5066080;28;20575;-64
2024/02/18 09:27:54;;;;;;;15.63;10.15;;;16.80;73.30;;;;;;5057693;28;20077;-64
2024/02/18 09:30:20;;;;;;;14.45;10.02;;;16.90;73.00;;;;;;5073841;28;20064;-65
2024/02/18 09:32:47;;;;;;;18.90;10.27;;;16.90;72.40;;;;;;5059912;28;20199;-65
2024/02/18 09:35:13;;;;;;;19.05;9.68;;;16.90;72.30;;;;;;5071833;28;20097;-65
2024/02/18 09:37:40;;;;;;;15.35;9.65;;;17.00;72.20;;;;;;5055306;28;20164;-65
2024/02/18 09:40:09;;;;;;;16.25;9.35;;;17.10;71.20;;;;;;5071269;28;20073;-65
2024/02/18 09:42:45;;;;;;;15.40;8.88;;;16.90;71.40;;;;;;5069845;28;20114;-65
2024/02/18 09:45:11;;;;;;;23.02;9.52;;;16.90;71.70;;;;;;5069295;28;20420;-65
2024/02/18 09:47:44;;;;;;;16.83;9.48;;;16.90;71.60;;;;;;5059858;28;20074;-65
2024/02/18 09:50:11;;;;;;;15.30;9.82;;;16.80;72.20;;;;;;5084891;28;20417;-65
2024/02/18 09:52:41;;;;;;;15.30;9.20;;;16.70;73.00;;;;;;5069159;28;20065;-65
2024/02/18 09:55:12;;;;;;;21.50;10.55;;;16.60;72.60;;;;;;5054297;28;20583;-66
2024/02/18 09:57:39;;;;;;;14.77;10.20;;;16.60;73.20;;;;;;5064185;28;20112;-66
2024/02/18 10:00:09;;;;;;;22.42;10.98;;;16.60;74.30;;;;;;5062953;28;20065;-64
2024/02/18 10:02:36;;;;;;;17.48;11.63;;;16.60;75.00;;;;;;5067945;28;20482;-65
2024/02/18 10:05:04;;;;;;;21.70;11.35;;;16.60;75.50;;;;;;5051189;28;20074;-65
2024/02/18 10:07:33;;;;;;;18.95;11.68;;;16.40;76.80;;;;;;5069257;28;20103;-65
2024/02/18 10:10:04;;;;;;;30.48;12.52;;;16.40;77.60;;;;;;5066764;28;20080;-65
2024/02/18 10:12:34;;;;;;;25.88;14.35;;;16.20;78.50;;;;;;5061876;28;20080;-66
2024/02/18 10:15:03;;;;;;;26.10;13.75;;;16.10;79.40;;;;;;5060813;28;20104;-66
2024/02/18 10:17:33;;;;;;;22.98;12.90;;;16.00;80.20;;;;;;5069397;28;20103;-65
2024/02/18 10:20:00;;;;;;;22.80;14.05;;;15.90;81.70;;;;;;5054980;28;20123;-66
2024/02/18 10:22:26;;;;;;;23.40;14.80;;;15.60;82.90;;;;;;5069676;28;20104;-66
2024/02/18 10:24:54;;;;;;;23.95;14.13;;;15.50;84.20;;;;;;5068964;28;20096;-65
2024/02/18 10:27:21;;;;;;;22.92;14.90;;;15.50;84.30;;;;;;5069862;28;20079;-66
2024/02/18 10:29:49;;;;;;;25.08;15.23;;;15.30;84.70;;;;;;5066644;28;20395;-66
2024/02/18 10:32:16;;;;;;;20.75;13.55;;;15.30;85.60;;;;;;5062309;28;20531;-67
2024/02/18 10:34:44;;;;;;;22.50;14.02;;;15.20;85.80;;;;;;5068969;28;20069;-66
2024/02/18 10:37:26;;;;;;;21.95;14.55;;;15.30;85.90;;;;;;5066476;28;20076;-65
2024/02/18 10:39:57;;;;;;;21.90;14.50;;;15.30;85.50;;;;;;5053621;28;20163;-66
2024/02/18 10:42:28;;;;;;;23.83;14.27;;;15.30;85.60;;;;;;5067545;28;20096;-66
2024/02/18 10:44:57;;;;;;;22.35;14.68;;;15.30;85.80;;;;;;5058638;28;20144;-67
2024/02/18 10:47:25;;;;;;;24.10;14.60;;;15.40;85.40;;;;;;5050347;28;20164;-67
2024/02/18 10:50:00;;;;;;;20.88;14.95;;;15.30;86.60;;;;;;5049071;28;20073;-66
2024/02/18 10:52:44;;;;;;;23.80;15.32;;;15.30;86.50;;;;;;5066960;28;20073;-66
2024/02/18 10:55:20;;;;;;;23.58;14.57;;;15.30;85.90;;;;;;5067469;28;20144;-65
2024/02/18 10:57:48;;;;;;;23.20;14.65;;;15.20;85.80;;;;;;5069678;28;20125;-65
2024/02/18 11:00:19;;;;;;;27.05;15.52;;;15.30;86.00;;;;;;5066841;28;20126;-65
2024/02/18 11:03:00;;;;;;;24.67;15.27;;;15.20;85.50;;;;;;5056722;28;20128;-65
2024/02/18 11:05:35;;;;;;;22.45;14.40;;;15.30;86.20;;;;;;5065000;28;20121;-64
2024/02/18 11:08:03;;;;;;;18.92;14.60;;;15.20;86.00;;;;;;5059689;28;20069;-65
2024/02/18 11:10:30;;;;;;;22.40;15.18;;;15.10;86.10;;;;;;5047235;28;20109;-64
2024/02/18 11:12:57;;;;;;;22.10;15.18;;;15.00;87.20;;;;;;5052886;28;20072;-65
2024/02/18 11:15:24;;;;;;;23.40;15.23;;;14.90;87.00;;;;;;5066161;28;20065;-64
2024/02/18 11:17:52;;;;;;;22.30;14.57;;;14.90;87.10;;;;;;5049628;28;20088;-65
2024/02/18 11:20:19;;;;;;;23.42;16.23;;;14.90;87.60;;;;;;5067078;28;20604;-65
2024/02/18 11:22:46;;;;;;;22.40;15.48;;;14.90;87.60;;;;;;5063107;28;20151;-64
2024/02/18 11:25:12;;;;;;;25.70;15.20;;;14.80;87.60;;;;;;5062295;28;20082;-64
2024/02/18 11:27:39;;;;;;;23.00;14.15;;;14.90;87.20;;;;;;5062393;28;20432;-65
2024/02/18 11:30:07;;;;;;;27.33;15.55;;;14.70;86.70;;;;;;5067429;28;20065;-64
2024/02/18 11:32:33;;;;;;;24.55;15.27;;;14.60;87.40;;;;;;5065517;28;20065;-65
2024/02/18 11:35:15;;;;;;;21.75;14.35;;;14.50;87.70;;;;;;5061423;28;20520;-67
2024/02/18 11:37:42;;;;;;;21.80;14.82;;;14.60;87.90;;;;;;5052827;28;20548;-66
2024/02/18 11:40:13;;;;;;;24.77;14.15;;;14.50;86.80;;;;;;5060631;28;20071;-66
2024/02/18 11:42:40;;;;;;;26.30;15.40;;;14.50;87.70;;;;;;5063146;28;20108;-66
2024/02/18 11:45:15;;;;;;;24.35;14.00;;;14.50;87.60;;;;;;5061435;28;20077;-66
2024/02/18 11:47:49;;;;;;;25.70;14.77;;;14.50;87.60;;;;;;5072523;28;20253;-66
2024/02/18 11:50:17;;;;;;;21.77;13.68;;;14.50;87.90;;;;;;5071616;28;20093;-66
2024/02/18 11:52:45;;;;;;;24.42;13.00;;;14.40;88.10;;;;;;5064534;28;20077;-65
2024/02/18 11:55:13;;;;;;;17.73;12.50;;;14.40;87.60;;;;;;5064480;28;20521;-65
2024/02/18 11:57:40;;;;;;;22.30;13.02;;;14.40;86.70;;;;;;5064988;28;20088;-65
2024/02/18 12:00:12;;;;;;;20.98;13.57;;;14.20;86.40;;;;;;5060316;28;20081;-65
2024/02/18 12:02:41;;;;;;;20.73;11.57;;;14.20;87.80;;;;;;5055389;28;20107;-65
2024/02/18 12:05:10;;;;;;;22.80;12.60;;;14.00;87.90;;;;;;5062934;28;20069;-65
2024/02/18 12:07:39;;;;;;;23.52;13.45;;;13.90;88.90;;;;;;5058491;28;20156;-64
2024/02/18 12:10:05;;;;;;;24.38;13.15;;;13.80;89.50;;;;;;5072741;28;20487;-64
2024/02/18 12:12:32;;;;;;;19.08;13.15;;;13.80;89.00;;;;;;5070656;28;20195;-64
2024/02/18 12:14:58;;;;;;;22.13;12.88;;;13.80;88.80;;;;;;5056770;28;20068;-64
2024/02/18 12:17:25;;;;;;;30.98;15.00;;;13.80;90.10;;;;;;5056731;28;20069;-65
2024/02/18 12:19:52;;;;;;;22.15;13.43;;;13.80;89.80;;;;;;5071648;28;20148;-65
2024/02/18 12:22:23;;;;;;;31.10;14.93;;;13.60;89.80;;;;;;5051595;28;20101;-64
2024/02/18 12:24:51;;;;;;;24.80;14.77;;;13.40;90.10;;;;;;5063368;28;20122;-64
2024/02/18 12:27:19;;;;;;;19.77;14.30;;;13.30;90.50;;;;;;5054137;28;20069;-64
2024/02/18 12:29:46;;;;;;;24.90;15.95;;;13.20;91.40;;;;;;5071260;28;20099;-65